sensor_id;sensor_type;location;lat;lon;timestamp;P1;durP1;ratioP1;P2;durP2;ratioP2
66702;SDS011;60933;46.398;-63.798;2023-07-13T00:00:49;3.33;;;2.83;;
66702;SDS011;60933;46.398;-63.798;2023-07-13T00:03:15;2.72;;;2.45;;
66702;SDS011;60933;46.398;-63.798;2023-07-13T00:05:42;2.25;;;2.05;;
66702;SDS011;60933;46.398;-63.798;2023-07-13T00:08:08;3.00;;;2.70;;
66702;SDS011;60933;46.398;-63.798;2023-07-13T00:10:40;3.25;;;2.53;;
66702;SDS011;60933;46.398;-63.798;2023-07-13T00:13:07;3.58;;;2.58;;
66702;SDS011;60933;46.398;-63.798;2023-07-13T00:15:34;2.67;;;2.47;;
66702;SDS011;60933;46.398;-63.798;2023-07-13T00:18:01;2.50;;;2.30;;
66702;SDS011;60933;46.398;-63.798;2023-07-13T00:20:27;4.25;;;2.47;;
66702;SDS011;60933;46.398;-63.798;2023-07-13T00:22:53;3.42;;;3.13;;
66702;SDS011;60933;46.398;-63.798;2023-07-13T00:25:20;3.92;;;2.88;;
66702;SDS011;60933;46.398;-63.798;2023-07-13T00:27:49;3.13;;;2.63;;
66702;SDS011;60933;46.398;-63.798;2023-07-13T00:30:16;3.05;;;2.55;;
66702;SDS011;60933;46.398;-63.798;2023-07-13T00:32:43;3.28;;;2.80;;
66702;SDS011;60933;46.398;-63.798;2023-07-13T00:35:09;2.80;;;2.60;;
66702;SDS011;60933;46.398;-63.798;2023-07-13T00:37:36;4.25;;;2.50;;
66702;SDS011;60933;46.398;-63.798;2023-07-13T00:40:05;3.58;;;2.20;;
66702;SDS011;60933;46.398;-63.798;2023-07-13T00:42:33;3.97;;;2.75;;
66702;SDS011;60933;46.398;-63.798;2023-07-13T00:47:41;2.17;;;2.00;;
66702;SDS011;60933;46.398;-63.798;2023-07-13T00:50:10;2.25;;;2.05;;
66702;SDS011;60933;46.398;-63.798;2023-07-13T00:52:45;2.80;;;2.60;;
66702;SDS011;60933;46.398;-63.798;2023-07-13T00:55:16;3.00;;;2.55;;
66702;SDS011;60933;46.398;-63.798;2023-07-13T00:57:43;2.78;;;2.47;;
66702;SDS011;60933;46.398;-63.798;2023-07-13T01:00:10;3.10;;;2.80;;
66702;SDS011;60933;46.398;-63.798;2023-07-13T01:02:38;3.20;;;2.17;;
66702;SDS011;60933;46.398;-63.798;2023-07-13T01:05:11;3.10;;;2.47;;
66702;SDS011;60933;46.398;-63.798;2023-07-13T01:07:45;3.53;;;2.58;;
66702;SDS011;60933;46.398;-63.798;2023-07-13T01:10:13;3.00;;;1.80;;
66702;SDS011;60933;46.398;-63.798;2023-07-13T01:12:40;3.40;;;3.05;;
66702;SDS011;60933;46.398;-63.798;2023-07-13T01:15:32;3.10;;;2.75;;
66702;SDS011;60933;46.398;-63.798;2023-07-13T01:18:05;4.30;;;2.75;;
66702;SDS011;60933;46.398;-63.798;2023-07-13T01:21:03;3.47;;;2.72;;
66702;SDS011;60933;46.398;-63.798;2023-07-13T01:23:30;3.22;;;2.92;;
66702;SDS011;60933;46.398;-63.798;2023-07-13T01:25:58;2.58;;;2.38;;
66702;SDS011;60933;46.398;-63.798;2023-07-13T01:28:25;2.92;;;2.60;;
66702;SDS011;60933;46.398;-63.798;2023-07-13T01:30:53;3.70;;;2.05;;
66702;SDS011;60933;46.398;-63.798;2023-07-13T01:33:21;3.70;;;2.63;;
66702;SDS011;60933;46.398;-63.798;2023-07-13T01:35:47;2.70;;;2.42;;
66702;SDS011;60933;46.398;-63.798;2023-07-13T01:38:14;3.45;;;2.70;;
66702;SDS011;60933;46.398;-63.798;2023-07-13T01:40:42;3.53;;;2.90;;
66702;SDS011;60933;46.398;-63.798;2023-07-13T01:43:09;2.78;;;2.58;;
66702;SDS011;60933;46.398;-63.798;2023-07-13T01:45:35;3.47;;;2.85;;
66702;SDS011;60933;46.398;-63.798;2023-07-13T01:48:01;3.38;;;2.83;;
66702;SDS011;60933;46.398;-63.798;2023-07-13T01:50:27;2.80;;;1.73;;
66702;SDS011;60933;46.398;-63.798;2023-07-13T01:52:53;3.28;;;2.78;;
66702;SDS011;60933;46.398;-63.798;2023-07-13T01:55:20;2.50;;;2.30;;
66702;SDS011;60933;46.398;-63.798;2023-07-13T01:57:47;2.72;;;2.50;;
66702;SDS011;60933;46.398;-63.798;2023-07-13T02:00:14;2.88;;;2.53;;
66702;SDS011;60933;46.398;-63.798;2023-07-13T02:02:41;3.05;;;2.22;;
66702;SDS011;60933;46.398;-63.798;2023-07-13T02:05:08;3.10;;;2.83;;
66702;SDS011;60933;46.398;-63.798;2023-07-13T02:07:34;2.50;;;1.92;;
66702;SDS011;60933;46.398;-63.798;2023-07-13T02:10:00;2.42;;;2.22;;
66702;SDS011;60933;46.398;-63.798;2023-07-13T02:12:26;2.65;;;2.40;;
66702;SDS011;60933;46.398;-63.798;2023-07-13T02:14:52;2.70;;;2.40;;
66702;SDS011;60933;46.398;-63.798;2023-07-13T02:17:18;2.55;;;2.20;;
66702;SDS011;60933;46.398;-63.798;2023-07-13T02:19:44;2.30;;;1.98;;
66702;SDS011;60933;46.398;-63.798;2023-07-13T02:22:11;2.95;;;2.60;;
66702;SDS011;60933;46.398;-63.798;2023-07-13T02:24:37;3.22;;;2.90;;
66702;SDS011;60933;46.398;-63.798;2023-07-13T02:27:03;2.55;;;2.35;;
66702;SDS011;60933;46.398;-63.798;2023-07-13T02:29:30;3.00;;;2.70;;
66702;SDS011;60933;46.398;-63.798;2023-07-13T02:31:56;3.20;;;2.90;;
66702;SDS011;60933;46.398;-63.798;2023-07-13T02:34:22;2.80;;;2.20;;
66702;SDS011;60933;46.398;-63.798;2023-07-13T02:36:48;2.85;;;2.28;;
66702;SDS011;60933;46.398;-63.798;2023-07-13T02:39:14;2.80;;;2.38;;
66702;SDS011;60933;46.398;-63.798;2023-07-13T02:41:40;5.03;;;2.60;;
66702;SDS011;60933;46.398;-63.798;2023-07-13T02:44:06;2.53;;;2.33;;
66702;SDS011;60933;46.398;-63.798;2023-07-13T02:46:34;2.55;;;1.80;;
66702;SDS011;60933;46.398;-63.798;2023-07-13T02:49:01;2.42;;;2.17;;
66702;SDS011;60933;46.398;-63.798;2023-07-13T02:51:28;2.72;;;2.35;;
66702;SDS011;60933;46.398;-63.798;2023-07-13T02:53:55;2.90;;;2.22;;
66702;SDS011;60933;46.398;-63.798;2023-07-13T02:56:25;2.92;;;2.60;;
66702;SDS011;60933;46.398;-63.798;2023-07-13T03:01:20;3.40;;;2.47;;
66702;SDS011;60933;46.398;-63.798;2023-07-13T03:03:47;3.10;;;2.50;;
66702;SDS011;60933;46.398;-63.798;2023-07-13T03:06:15;2.88;;;2.60;;
66702;SDS011;60933;46.398;-63.798;2023-07-13T03:08:42;3.22;;;2.70;;
66702;SDS011;60933;46.398;-63.798;2023-07-13T03:11:11;2.50;;;2.30;;
66702;SDS011;60933;46.398;-63.798;2023-07-13T03:13:39;3.30;;;2.63;;
66702;SDS011;60933;46.398;-63.798;2023-07-13T03:16:06;2.50;;;2.17;;
66702;SDS011;60933;46.398;-63.798;2023-07-13T03:18:34;2.53;;;2.20;;
66702;SDS011;60933;46.398;-63.798;2023-07-13T03:21:01;2.25;;;2.05;;
66702;SDS011;60933;46.398;-63.798;2023-07-13T03:23:27;3.03;;;2.28;;
66702;SDS011;60933;46.398;-63.798;2023-07-13T03:28:42;3.17;;;2.33;;
66702;SDS011;60933;46.398;-63.798;2023-07-13T03:31:10;2.53;;;2.22;;
66702;SDS011;60933;46.398;-63.798;2023-07-13T03:33:39;4.70;;;2.83;;
66702;SDS011;60933;46.398;-63.798;2023-07-13T03:36:06;3.38;;;2.83;;
66702;SDS011;60933;46.398;-63.798;2023-07-13T03:38:33;3.28;;;2.65;;
66702;SDS011;60933;46.398;-63.798;2023-07-13T03:41:00;2.95;;;2.65;;
66702;SDS011;60933;46.398;-63.798;2023-07-13T03:43:26;2.80;;;2.47;;
66702;SDS011;60933;46.398;-63.798;2023-07-13T03:45:52;4.38;;;3.25;;
66702;SDS011;60933;46.398;-63.798;2023-07-13T03:48:18;2.80;;;2.50;;
66702;SDS011;60933;46.398;-63.798;2023-07-13T03:50:44;2.17;;;1.98;;
66702;SDS011;60933;46.398;-63.798;2023-07-13T03:53:10;2.30;;;2.10;;
66702;SDS011;60933;46.398;-63.798;2023-07-13T03:55:36;3.08;;;2.60;;
66702;SDS011;60933;46.398;-63.798;2023-07-13T03:58:48;2.83;;;2.33;;
66702;SDS011;60933;46.398;-63.798;2023-07-13T04:00:52;3.40;;;2.35;;
66702;SDS011;60933;46.398;-63.798;2023-07-13T04:03:19;3.45;;;2.40;;
66702;SDS011;60933;46.398;-63.798;2023-07-13T04:05:45;3.85;;;3.08;;
66702;SDS011;60933;46.398;-63.798;2023-07-13T04:08:11;3.35;;;2.45;;
66702;SDS011;60933;46.398;-63.798;2023-07-13T04:10:38;3.50;;;2.60;;
66702;SDS011;60933;46.398;-63.798;2023-07-13T04:13:04;3.10;;;2.28;;
66702;SDS011;60933;46.398;-63.798;2023-07-13T04:15:31;4.47;;;3.25;;
66702;SDS011;60933;46.398;-63.798;2023-07-13T04:17:58;3.35;;;3.03;;
66702;SDS011;60933;46.398;-63.798;2023-07-13T04:20:25;3.42;;;3.03;;
66702;SDS011;60933;46.398;-63.798;2023-07-13T04:22:52;4.15;;;2.28;;
66702;SDS011;60933;46.398;-63.798;2023-07-13T04:25:18;5.30;;;2.85;;
66702;SDS011;60933;46.398;-63.798;2023-07-13T04:27:45;4.32;;;3.25;;
66702;SDS011;60933;46.398;-63.798;2023-07-13T04:30:11;3.20;;;2.60;;
66702;SDS011;60933;46.398;-63.798;2023-07-13T04:32:38;4.13;;;2.83;;
66702;SDS011;60933;46.398;-63.798;2023-07-13T04:35:04;3.20;;;2.90;;
66702;SDS011;60933;46.398;-63.798;2023-07-13T04:37:30;3.50;;;3.17;;
66702;SDS011;60933;46.398;-63.798;2023-07-13T04:39:56;4.30;;;3.42;;
66702;SDS011;60933;46.398;-63.798;2023-07-13T04:42:23;4.82;;;4.10;;
66702;SDS011;60933;46.398;-63.798;2023-07-13T04:44:49;4.63;;;3.42;;
66702;SDS011;60933;46.398;-63.798;2023-07-13T04:47:16;4.47;;;2.97;;
66702;SDS011;60933;46.398;-63.798;2023-07-13T04:49:44;3.60;;;2.90;;
66702;SDS011;60933;46.398;-63.798;2023-07-13T04:52:10;3.63;;;2.85;;
66702;SDS011;60933;46.398;-63.798;2023-07-13T04:54:37;3.70;;;3.08;;
66702;SDS011;60933;46.398;-63.798;2023-07-13T04:57:04;4.07;;;3.67;;
66702;SDS011;60933;46.398;-63.798;2023-07-13T04:59:35;5.03;;;4.10;;
66702;SDS011;60933;46.398;-63.798;2023-07-13T05:02:02;4.43;;;3.30;;
66702;SDS011;60933;46.398;-63.798;2023-07-13T05:04:28;4.32;;;3.58;;
66702;SDS011;60933;46.398;-63.798;2023-07-13T05:06:54;4.20;;;3.38;;
66702;SDS011;60933;46.398;-63.798;2023-07-13T05:09:20;5.68;;;3.97;;
66702;SDS011;60933;46.398;-63.798;2023-07-13T05:11:46;4.35;;;3.17;;
66702;SDS011;60933;46.398;-63.798;2023-07-13T05:14:12;4.78;;;4.22;;
66702;SDS011;60933;46.398;-63.798;2023-07-13T05:16:39;3.97;;;3.55;;
66702;SDS011;60933;46.398;-63.798;2023-07-13T05:19:05;4.10;;;3.35;;
66702;SDS011;60933;46.398;-63.798;2023-07-13T05:21:31;4.20;;;3.53;;
66702;SDS011;60933;46.398;-63.798;2023-07-13T05:23:57;5.38;;;3.42;;
66702;SDS011;60933;46.398;-63.798;2023-07-13T05:26:23;4.75;;;4.28;;
66702;SDS011;60933;46.398;-63.798;2023-07-13T05:28:49;4.07;;;3.30;;
66702;SDS011;60933;46.398;-63.798;2023-07-13T05:31:15;5.03;;;4.13;;
66702;SDS011;60933;46.398;-63.798;2023-07-13T05:33:41;6.07;;;4.40;;
66702;SDS011;60933;46.398;-63.798;2023-07-13T05:36:07;5.35;;;4.25;;
66702;SDS011;60933;46.398;-63.798;2023-07-13T05:38:34;6.05;;;4.72;;
66702;SDS011;60933;46.398;-63.798;2023-07-13T05:41:00;5.13;;;3.35;;
66702;SDS011;60933;46.398;-63.798;2023-07-13T05:43:26;4.95;;;3.60;;
66702;SDS011;60933;46.398;-63.798;2023-07-13T05:45:53;6.13;;;4.13;;
66702;SDS011;60933;46.398;-63.798;2023-07-13T05:48:20;4.13;;;3.40;;
66702;SDS011;60933;46.398;-63.798;2023-07-13T05:50:46;5.07;;;3.80;;
66702;SDS011;60933;46.398;-63.798;2023-07-13T05:53:13;4.70;;;3.63;;
66702;SDS011;60933;46.398;-63.798;2023-07-13T05:55:43;5.57;;;4.28;;
66702;SDS011;60933;46.398;-63.798;2023-07-13T05:58:12;6.43;;;4.55;;
66702;SDS011;60933;46.398;-63.798;2023-07-13T06:00:39;4.68;;;3.72;;
66702;SDS011;60933;46.398;-63.798;2023-07-13T06:03:06;4.80;;;4.10;;
66702;SDS011;60933;46.398;-63.798;2023-07-13T06:05:33;6.10;;;4.45;;
66702;SDS011;60933;46.398;-63.798;2023-07-13T06:08:00;5.10;;;4.03;;
66702;SDS011;60933;46.398;-63.798;2023-07-13T06:10:26;4.72;;;3.40;;
66702;SDS011;60933;46.398;-63.798;2023-07-13T06:12:52;3.92;;;3.03;;
66702;SDS011;60933;46.398;-63.798;2023-07-13T06:15:18;3.25;;;2.90;;
66702;SDS011;60933;46.398;-63.798;2023-07-13T06:17:44;3.45;;;2.70;;
66702;SDS011;60933;46.398;-63.798;2023-07-13T06:20:11;2.92;;;2.47;;
66702;SDS011;60933;46.398;-63.798;2023-07-13T06:22:37;5.30;;;3.63;;
66702;SDS011;60933;46.398;-63.798;2023-07-13T06:25:04;4.55;;;3.70;;
66702;SDS011;60933;46.398;-63.798;2023-07-13T06:27:30;4.13;;;3.20;;
66702;SDS011;60933;46.398;-63.798;2023-07-13T06:29:56;3.38;;;2.72;;
66702;SDS011;60933;46.398;-63.798;2023-07-13T06:32:22;4.35;;;3.30;;
66702;SDS011;60933;46.398;-63.798;2023-07-13T06:34:48;4.93;;;3.42;;
66702;SDS011;60933;46.398;-63.798;2023-07-13T06:37:17;3.50;;;2.92;;
66702;SDS011;60933;46.398;-63.798;2023-07-13T06:39:43;3.60;;;3.03;;
66702;SDS011;60933;46.398;-63.798;2023-07-13T06:42:10;3.70;;;2.70;;
66702;SDS011;60933;46.398;-63.798;2023-07-13T06:44:36;3.30;;;2.65;;
66702;SDS011;60933;46.398;-63.798;2023-07-13T06:47:02;4.72;;;3.33;;
66702;SDS011;60933;46.398;-63.798;2023-07-13T06:49:29;4.65;;;3.97;;
66702;SDS011;60933;46.398;-63.798;2023-07-13T06:51:55;3.65;;;3.00;;
66702;SDS011;60933;46.398;-63.798;2023-07-13T06:54:21;3.72;;;2.80;;
66702;SDS011;60933;46.398;-63.798;2023-07-13T06:56:47;3.20;;;2.83;;
66702;SDS011;60933;46.398;-63.798;2023-07-13T06:59:13;3.80;;;2.70;;
66702;SDS011;60933;46.398;-63.798;2023-07-13T07:01:39;5.15;;;3.80;;
66702;SDS011;60933;46.398;-63.798;2023-07-13T07:04:05;5.13;;;3.60;;
66702;SDS011;60933;46.398;-63.798;2023-07-13T07:06:31;4.97;;;3.63;;
66702;SDS011;60933;46.398;-63.798;2023-07-13T07:08:57;5.95;;;3.95;;
66702;SDS011;60933;46.398;-63.798;2023-07-13T07:11:24;3.22;;;2.47;;
66702;SDS011;60933;46.398;-63.798;2023-07-13T07:13:51;4.20;;;2.70;;
66702;SDS011;60933;46.398;-63.798;2023-07-13T07:16:19;5.20;;;3.85;;
66702;SDS011;60933;46.398;-63.798;2023-07-13T07:18:46;4.15;;;3.53;;
66702;SDS011;60933;46.398;-63.798;2023-07-13T07:21:12;5.72;;;4.38;;
66702;SDS011;60933;46.398;-63.798;2023-07-13T07:23:39;5.80;;;4.13;;
66702;SDS011;60933;46.398;-63.798;2023-07-13T07:26:05;5.95;;;4.10;;
66702;SDS011;60933;46.398;-63.798;2023-07-13T07:28:34;7.35;;;4.00;;
66702;SDS011;60933;46.398;-63.798;2023-07-13T07:31:00;5.30;;;4.32;;
66702;SDS011;60933;46.398;-63.798;2023-07-13T07:33:26;5.05;;;4.10;;
66702;SDS011;60933;46.398;-63.798;2023-07-13T07:35:52;5.53;;;4.60;;
66702;SDS011;60933;46.398;-63.798;2023-07-13T07:38:18;5.40;;;4.78;;
66702;SDS011;60933;46.398;-63.798;2023-07-13T07:40:44;5.53;;;4.72;;
66702;SDS011;60933;46.398;-63.798;2023-07-13T07:43:11;6.97;;;5.55;;
66702;SDS011;60933;46.398;-63.798;2023-07-13T07:45:38;9.20;;;5.80;;
66702;SDS011;60933;46.398;-63.798;2023-07-13T07:48:06;7.72;;;5.68;;
66702;SDS011;60933;46.398;-63.798;2023-07-13T07:50:34;5.53;;;4.32;;
66702;SDS011;60933;46.398;-63.798;2023-07-13T07:53:02;8.68;;;5.85;;
66702;SDS011;60933;46.398;-63.798;2023-07-13T07:55:28;8.13;;;5.28;;
66702;SDS011;60933;46.398;-63.798;2023-07-13T07:57:56;6.93;;;5.63;;
66702;SDS011;60933;46.398;-63.798;2023-07-13T08:00:22;7.35;;;6.00;;
66702;SDS011;60933;46.398;-63.798;2023-07-13T08:02:48;9.00;;;6.90;;
66702;SDS011;60933;46.398;-63.798;2023-07-13T08:05:14;7.25;;;5.15;;
66702;SDS011;60933;46.398;-63.798;2023-07-13T08:07:41;7.18;;;5.95;;
66702;SDS011;60933;46.398;-63.798;2023-07-13T08:10:07;7.78;;;5.97;;
66702;SDS011;60933;46.398;-63.798;2023-07-13T08:12:35;8.48;;;6.03;;
66702;SDS011;60933;46.398;-63.798;2023-07-13T08:15:02;6.35;;;4.95;;
66702;SDS011;60933;46.398;-63.798;2023-07-13T08:17:29;9.23;;;6.40;;
66702;SDS011;60933;46.398;-63.798;2023-07-13T08:19:55;7.68;;;5.72;;
66702;SDS011;60933;46.398;-63.798;2023-07-13T08:22:21;8.98;;;6.45;;
66702;SDS011;60933;46.398;-63.798;2023-07-13T08:24:47;9.10;;;6.72;;
66702;SDS011;60933;46.398;-63.798;2023-07-13T08:27:20;6.65;;;5.28;;
66702;SDS011;60933;46.398;-63.798;2023-07-13T08:29:47;7.90;;;5.65;;
66702;SDS011;60933;46.398;-63.798;2023-07-13T08:32:13;8.20;;;5.95;;
66702;SDS011;60933;46.398;-63.798;2023-07-13T08:34:40;7.20;;;5.82;;
66702;SDS011;60933;46.398;-63.798;2023-07-13T08:37:06;8.70;;;6.35;;
66702;SDS011;60933;46.398;-63.798;2023-07-13T08:39:34;8.23;;;6.13;;
66702;SDS011;60933;46.398;-63.798;2023-07-13T08:42:02;7.45;;;5.85;;
66702;SDS011;60933;46.398;-63.798;2023-07-13T08:44:58;7.10;;;4.93;;
66702;SDS011;60933;46.398;-63.798;2023-07-13T08:47:46;5.28;;;4.05;;
66702;SDS011;60933;46.398;-63.798;2023-07-13T08:50:35;8.70;;;6.28;;
66702;SDS011;60933;46.398;-63.798;2023-07-13T08:53:12;7.28;;;5.35;;
66702;SDS011;60933;46.398;-63.798;2023-07-13T08:55:41;7.03;;;5.18;;
66702;SDS011;60933;46.398;-63.798;2023-07-13T08:58:14;6.63;;;5.18;;
66702;SDS011;60933;46.398;-63.798;2023-07-13T09:03:40;8.43;;;5.45;;
66702;SDS011;60933;46.398;-63.798;2023-07-13T09:06:36;7.90;;;5.57;;
66702;SDS011;60933;46.398;-63.798;2023-07-13T09:12:43;7.05;;;5.32;;
66702;SDS011;60933;46.398;-63.798;2023-07-13T09:18:11;6.60;;;5.28;;
66702;SDS011;60933;46.398;-63.798;2023-07-13T09:21:03;6.35;;;4.80;;
66702;SDS011;60933;46.398;-63.798;2023-07-13T09:23:34;7.35;;;4.95;;
66702;SDS011;60933;46.398;-63.798;2023-07-13T09:26:12;8.27;;;5.15;;
66702;SDS011;60933;46.398;-63.798;2023-07-13T09:28:44;7.97;;;5.40;;
66702;SDS011;60933;46.398;-63.798;2023-07-13T09:31:17;6.50;;;4.97;;
66702;SDS011;60933;46.398;-63.798;2023-07-13T09:33:49;7.75;;;5.63;;
66702;SDS011;60933;46.398;-63.798;2023-07-13T09:38:53;6.50;;;4.88;;
66702;SDS011;60933;46.398;-63.798;2023-07-13T09:44:18;5.28;;;3.72;;
66702;SDS011;60933;46.398;-63.798;2023-07-13T09:47:03;5.80;;;4.63;;
66702;SDS011;60933;46.398;-63.798;2023-07-13T09:49:42;8.27;;;5.38;;
66702;SDS011;60933;46.398;-63.798;2023-07-13T09:52:11;7.32;;;5.85;;
66702;SDS011;60933;46.398;-63.798;2023-07-13T09:54:43;7.25;;;4.72;;
66702;SDS011;60933;46.398;-63.798;2023-07-13T09:57:15;6.85;;;5.32;;
66702;SDS011;60933;46.398;-63.798;2023-07-13T09:59:44;5.05;;;4.55;;
66702;SDS011;60933;46.398;-63.798;2023-07-13T10:02:32;6.38;;;4.65;;
66702;SDS011;60933;46.398;-63.798;2023-07-13T10:05:05;7.45;;;4.82;;
66702;SDS011;60933;46.398;-63.798;2023-07-13T10:07:43;7.55;;;5.40;;
66702;SDS011;60933;46.398;-63.798;2023-07-13T10:10:17;6.95;;;3.90;;
66702;SDS011;60933;46.398;-63.798;2023-07-13T10:12:46;7.05;;;5.13;;
66702;SDS011;60933;46.398;-63.798;2023-07-13T10:15:15;8.00;;;5.40;;
66702;SDS011;60933;46.398;-63.798;2023-07-13T10:17:44;8.60;;;6.60;;
66702;SDS011;60933;46.398;-63.798;2023-07-13T10:20:11;9.05;;;5.85;;
66702;SDS011;60933;46.398;-63.798;2023-07-13T10:25:19;6.97;;;5.55;;
66702;SDS011;60933;46.398;-63.798;2023-07-13T10:27:49;8.60;;;6.63;;
66702;SDS011;60933;46.398;-63.798;2023-07-13T10:30:25;8.20;;;5.55;;
66702;SDS011;60933;46.398;-63.798;2023-07-13T10:33:01;7.55;;;5.22;;
66702;SDS011;60933;46.398;-63.798;2023-07-13T10:35:29;8.57;;;6.47;;
66702;SDS011;60933;46.398;-63.798;2023-07-13T10:43:18;9.18;;;5.57;;
66702;SDS011;60933;46.398;-63.798;2023-07-13T10:45:50;6.65;;;4.68;;
66702;SDS011;60933;46.398;-63.798;2023-07-13T10:48:19;6.85;;;5.43;;
66702;SDS011;60933;46.398;-63.798;2023-07-13T10:50:48;6.07;;;4.75;;
66702;SDS011;60933;46.398;-63.798;2023-07-13T10:55:56;7.03;;;5.50;;
66702;SDS011;60933;46.398;-63.798;2023-07-13T11:01:09;9.30;;;6.07;;
66702;SDS011;60933;46.398;-63.798;2023-07-13T11:03:47;6.47;;;4.57;;
66702;SDS011;60933;46.398;-63.798;2023-07-13T11:06:31;8.27;;;6.28;;
66702;SDS011;60933;46.398;-63.798;2023-07-13T11:20:42;8.30;;;5.75;;
66702;SDS011;60933;46.398;-63.798;2023-07-13T11:22:43;8.73;;;6.20;;
66702;SDS011;60933;46.398;-63.798;2023-07-13T11:30:50;8.90;;;6.30;;
66702;SDS011;60933;46.398;-63.798;2023-07-13T11:36:06;10.35;;;7.78;;
66702;SDS011;60933;46.398;-63.798;2023-07-13T11:38:42;9.27;;;7.05;;
66702;SDS011;60933;46.398;-63.798;2023-07-13T11:41:43;8.32;;;6.55;;
66702;SDS011;60933;46.398;-63.798;2023-07-13T11:44:12;7.30;;;6.30;;
66702;SDS011;60933;46.398;-63.798;2023-07-13T11:46:44;9.70;;;6.47;;
66702;SDS011;60933;46.398;-63.798;2023-07-13T11:49:16;7.60;;;6.03;;
66702;SDS011;60933;46.398;-63.798;2023-07-13T11:51:43;6.47;;;4.80;;
66702;SDS011;60933;46.398;-63.798;2023-07-13T11:54:31;7.15;;;5.07;;
66702;SDS011;60933;46.398;-63.798;2023-07-13T11:57:02;9.02;;;5.97;;
66702;SDS011;60933;46.398;-63.798;2023-07-13T11:59:40;8.07;;;6.82;;
66702;SDS011;60933;46.398;-63.798;2023-07-13T12:02:48;8.38;;;5.97;;
66702;SDS011;60933;46.398;-63.798;2023-07-13T12:04:59;7.25;;;5.82;;
66702;SDS011;60933;46.398;-63.798;2023-07-13T12:07:28;8.75;;;6.20;;
66702;SDS011;60933;46.398;-63.798;2023-07-13T12:10:00;8.88;;;6.60;;
66702;SDS011;60933;46.398;-63.798;2023-07-13T12:12:47;8.93;;;7.18;;
66702;SDS011;60933;46.398;-63.798;2023-07-13T12:15:27;9.02;;;7.13;;
66702;SDS011;60933;46.398;-63.798;2023-07-13T12:18:15;8.48;;;7.38;;
66702;SDS011;60933;46.398;-63.798;2023-07-13T12:20:45;8.60;;;6.88;;
66702;SDS011;60933;46.398;-63.798;2023-07-13T12:23:18;9.60;;;7.15;;
66702;SDS011;60933;46.398;-63.798;2023-07-13T12:25:51;9.45;;;7.93;;
66702;SDS011;60933;46.398;-63.798;2023-07-13T12:28:22;9.60;;;7.65;;
66702;SDS011;60933;46.398;-63.798;2023-07-13T12:33:32;10.82;;;7.25;;
66702;SDS011;60933;46.398;-63.798;2023-07-13T12:36:03;8.15;;;7.30;;
66702;SDS011;60933;46.398;-63.798;2023-07-13T12:38:32;10.82;;;6.68;;
66702;SDS011;60933;46.398;-63.798;2023-07-13T12:40:58;9.57;;;7.55;;
66702;SDS011;60933;46.398;-63.798;2023-07-13T12:43:28;9.90;;;6.93;;
66702;SDS011;60933;46.398;-63.798;2023-07-13T12:46:15;8.27;;;5.82;;
66702;SDS011;60933;46.398;-63.798;2023-07-13T12:48:44;9.60;;;7.72;;
66702;SDS011;60933;46.398;-63.798;2023-07-13T12:51:14;8.70;;;6.90;;
66702;SDS011;60933;46.398;-63.798;2023-07-13T12:53:42;9.55;;;7.15;;
66702;SDS011;60933;46.398;-63.798;2023-07-13T12:56:23;8.82;;;6.95;;
66702;SDS011;60933;46.398;-63.798;2023-07-13T12:58:58;7.70;;;6.03;;
66702;SDS011;60933;46.398;-63.798;2023-07-13T13:01:28;8.80;;;6.93;;
66702;SDS011;60933;46.398;-63.798;2023-07-13T13:04:00;7.93;;;6.78;;
66702;SDS011;60933;46.398;-63.798;2023-07-13T13:06:34;8.52;;;6.97;;
66702;SDS011;60933;46.398;-63.798;2023-07-13T13:09:05;10.00;;;7.70;;
66702;SDS011;60933;46.398;-63.798;2023-07-13T13:11:37;9.38;;;7.50;;
66702;SDS011;60933;46.398;-63.798;2023-07-13T13:14:05;10.35;;;8.52;;
66702;SDS011;60933;46.398;-63.798;2023-07-13T13:16:34;10.18;;;7.80;;
66702;SDS011;60933;46.398;-63.798;2023-07-13T13:19:14;8.90;;;7.35;;
66702;SDS011;60933;46.398;-63.798;2023-07-13T13:21:47;8.65;;;7.30;;
66702;SDS011;60933;46.398;-63.798;2023-07-13T13:24:19;10.38;;;7.43;;
66702;SDS011;60933;46.398;-63.798;2023-07-13T13:26:47;9.57;;;6.78;;
66702;SDS011;60933;46.398;-63.798;2023-07-13T13:29:16;8.05;;;6.68;;
66702;SDS011;60933;46.398;-63.798;2023-07-13T13:31:44;9.35;;;7.55;;
66702;SDS011;60933;46.398;-63.798;2023-07-13T13:34:12;9.05;;;7.30;;
66702;SDS011;60933;46.398;-63.798;2023-07-13T13:36:41;9.48;;;7.65;;
66702;SDS011;60933;46.398;-63.798;2023-07-13T13:39:50;9.43;;;7.40;;
66702;SDS011;60933;46.398;-63.798;2023-07-13T13:42:01;8.60;;;7.43;;
66702;SDS011;60933;46.398;-63.798;2023-07-13T13:44:27;8.88;;;7.85;;
66702;SDS011;60933;46.398;-63.798;2023-07-13T13:46:54;7.97;;;6.93;;
66702;SDS011;60933;46.398;-63.798;2023-07-13T13:49:22;10.75;;;8.02;;
66702;SDS011;60933;46.398;-63.798;2023-07-13T13:51:51;10.43;;;8.23;;
66702;SDS011;60933;46.398;-63.798;2023-07-13T13:54:18;11.35;;;8.90;;
66702;SDS011;60933;46.398;-63.798;2023-07-13T13:56:46;9.95;;;8.88;;
66702;SDS011;60933;46.398;-63.798;2023-07-13T13:59:14;9.90;;;8.38;;
66702;SDS011;60933;46.398;-63.798;2023-07-13T14:01:41;9.23;;;8.32;;
66702;SDS011;60933;46.398;-63.798;2023-07-13T14:04:19;10.68;;;8.77;;
66702;SDS011;60933;46.398;-63.798;2023-07-13T14:06:47;10.73;;;9.15;;
66702;SDS011;60933;46.398;-63.798;2023-07-13T14:09:15;10.32;;;8.55;;
66702;SDS011;60933;46.398;-63.798;2023-07-13T14:11:43;10.10;;;9.10;;
66702;SDS011;60933;46.398;-63.798;2023-07-13T14:14:15;9.95;;;8.93;;
66702;SDS011;60933;46.398;-63.798;2023-07-13T14:16:43;11.88;;;8.93;;
66702;SDS011;60933;46.398;-63.798;2023-07-13T14:19:11;10.80;;;8.85;;
66702;SDS011;60933;46.398;-63.798;2023-07-13T14:21:39;10.38;;;9.10;;
66702;SDS011;60933;46.398;-63.798;2023-07-13T14:24:06;10.13;;;8.75;;
66702;SDS011;60933;46.398;-63.798;2023-07-13T14:26:33;11.65;;;9.18;;
66702;SDS011;60933;46.398;-63.798;2023-07-13T14:29:11;9.77;;;8.10;;
66702;SDS011;60933;46.398;-63.798;2023-07-13T14:31:43;10.90;;;9.80;;
66702;SDS011;60933;46.398;-63.798;2023-07-13T14:34:10;11.88;;;9.30;;
66702;SDS011;60933;46.398;-63.798;2023-07-13T14:36:39;18.45;;;12.05;;
66702;SDS011;60933;46.398;-63.798;2023-07-13T14:39:14;11.90;;;10.52;;
66702;SDS011;60933;46.398;-63.798;2023-07-13T14:41:42;10.98;;;9.73;;
66702;SDS011;60933;46.398;-63.798;2023-07-13T14:44:15;12.75;;;10.48;;
66702;SDS011;60933;46.398;-63.798;2023-07-13T14:46:43;11.35;;;10.15;;
66702;SDS011;60933;46.398;-63.798;2023-07-13T14:49:13;12.20;;;10.35;;
66702;SDS011;60933;46.398;-63.798;2023-07-13T14:51:47;9.48;;;7.43;;
66702;SDS011;60933;46.398;-63.798;2023-07-13T14:54:13;11.18;;;9.93;;
66702;SDS011;60933;46.398;-63.798;2023-07-13T14:56:39;10.80;;;8.52;;
66702;SDS011;60933;46.398;-63.798;2023-07-13T14:59:05;11.75;;;8.80;;
66702;SDS011;60933;46.398;-63.798;2023-07-13T15:01:33;12.00;;;9.70;;
66702;SDS011;60933;46.398;-63.798;2023-07-13T15:04:01;8.77;;;7.57;;
66702;SDS011;60933;46.398;-63.798;2023-07-13T15:06:27;11.63;;;10.18;;
66702;SDS011;60933;46.398;-63.798;2023-07-13T15:08:54;10.55;;;9.45;;
66702;SDS011;60933;46.398;-63.798;2023-07-13T15:11:20;12.25;;;10.90;;
66702;SDS011;60933;46.398;-63.798;2023-07-13T15:13:47;11.52;;;10.35;;
66702;SDS011;60933;46.398;-63.798;2023-07-13T15:16:24;11.10;;;10.00;;
66702;SDS011;60933;46.398;-63.798;2023-07-13T15:18:51;10.25;;;9.15;;
66702;SDS011;60933;46.398;-63.798;2023-07-13T15:21:21;10.25;;;9.02;;
66702;SDS011;60933;46.398;-63.798;2023-07-13T15:26:16;10.93;;;9.82;;
66702;SDS011;60933;46.398;-63.798;2023-07-13T15:28:44;10.82;;;8.32;;
66702;SDS011;60933;46.398;-63.798;2023-07-13T15:31:24;12.02;;;10.40;;